createdAt,value
2019-04-14T00:00:21.195Z,998.82
2019-04-14T00:01:21.636Z,998.76
2019-04-14T00:02:21.164Z,998.79
2019-04-14T00:03:21.604Z,998.81
2019-04-14T00:04:22.486Z,998.81
2019-04-14T00:05:21.155Z,998.81
2019-04-14T00:06:22.304Z,998.80
2019-04-14T00:07:21.141Z,998.79
2019-04-14T00:08:22.030Z,998.83
2019-04-14T00:09:21.142Z,998.80
2019-04-14T00:10:21.098Z,998.80
2019-04-14T00:11:21.262Z,998.79
2019-04-14T00:12:21.090Z,998.78
2019-04-14T00:13:21.760Z,998.68
2019-04-14T00:14:21.070Z,998.67
2019-04-14T00:15:29.441Z,998.72
2019-04-14T00:16:22.771Z,998.63
2019-04-14T00:17:21.637Z,998.63
2019-04-14T00:18:21.019Z,998.66
2019-04-14T00:19:21.726Z,998.62
2019-04-14T00:20:21.005Z,998.61
2019-04-14T00:21:21.535Z,998.68
2019-04-14T00:22:20.962Z,998.65
2019-04-14T00:23:21.560Z,998.65
2019-04-14T00:24:21.027Z,998.64
2019-04-14T00:25:21.613Z,998.63
2019-04-14T00:26:20.907Z,998.60
2019-04-14T00:27:21.424Z,998.62
2019-04-14T00:28:20.917Z,998.60
2019-04-14T00:29:21.727Z,998.64
2019-04-14T00:30:20.908Z,998.63
2019-04-14T00:31:21.657Z,998.63
2019-04-14T00:32:20.873Z,998.62
2019-04-14T00:33:21.400Z,998.61
2019-04-14T00:34:20.876Z,998.64
2019-04-14T00:35:21.056Z,998.65
2019-04-14T00:36:21.828Z,998.67
2019-04-14T00:37:20.815Z,998.71
2019-04-14T00:38:21.778Z,998.63
2019-04-14T00:39:22.552Z,998.71
2019-04-14T00:40:21.537Z,998.72
2019-04-14T00:41:33.790Z,998.63
2019-04-14T00:42:21.757Z,998.67
2019-04-14T00:43:21.841Z,998.70
2019-04-14T00:44:21.041Z,998.66
2019-04-14T00:45:32.232Z,998.69
2019-04-14T00:46:21.702Z,998.65
2019-04-14T00:47:20.697Z,998.63
2019-04-14T00:48:22.285Z,998.65
2019-04-14T00:49:20.706Z,998.60
2019-04-14T00:50:21.118Z,998.65
2019-04-14T00:51:21.992Z,998.59
2019-04-14T00:52:21.425Z,998.59
2019-04-14T00:53:20.843Z,998.61
2019-04-14T00:54:21.725Z,998.61
2019-04-14T00:55:20.633Z,998.62
2019-04-14T00:56:21.504Z,998.66
2019-04-14T00:57:20.598Z,998.66
2019-04-14T00:58:21.467Z,998.71
2019-04-14T00:59:20.575Z,998.64
2019-04-14T01:00:21.869Z,998.65
2019-04-14T01:01:20.539Z,998.64
2019-04-14T01:02:21.073Z,998.69
2019-04-14T01:03:20.528Z,998.72
2019-04-14T01:04:20.836Z,998.66
2019-04-14T01:05:21.662Z,998.72
2019-04-14T01:06:20.828Z,998.66
2019-04-14T01:07:21.554Z,998.66
2019-04-14T01:08:20.657Z,998.62
2019-04-14T01:09:21.565Z,998.69
2019-04-14T01:10:21.313Z,998.63
2019-04-14T01:11:20.436Z,998.61
2019-04-14T01:12:21.365Z,998.62
2019-04-14T01:13:20.420Z,998.61
2019-04-14T01:14:21.274Z,998.56
2019-04-14T01:15:20.434Z,998.59
2019-04-14T01:16:23.424Z,998.60
2019-04-14T01:17:20.375Z,998.64
2019-04-14T01:18:21.227Z,998.56
2019-04-14T01:19:20.358Z,998.58
2019-04-14T01:20:21.112Z,998.57
2019-04-14T01:21:20.349Z,998.60
2019-04-14T01:22:20.584Z,998.63
2019-04-14T01:23:21.452Z,998.61
2019-04-14T01:24:20.691Z,998.60
2019-04-14T01:25:21.437Z,998.62
2019-04-14T01:26:20.391Z,998.64
2019-04-14T01:27:21.102Z,998.64
2019-04-14T01:28:20.279Z,998.65
2019-04-14T01:29:20.937Z,998.65
2019-04-14T01:30:20.240Z,998.61
2019-04-14T01:31:20.623Z,998.64
2019-04-14T01:32:20.210Z,998.67
2019-04-14T01:33:20.586Z,998.66
2019-04-14T01:34:20.182Z,998.69
2019-04-14T01:35:20.336Z,998.63
2019-04-14T01:36:21.217Z,998.65
2019-04-14T01:37:20.209Z,998.63
2019-04-14T01:38:21.191Z,998.64
2019-04-14T01:39:20.140Z,998.63
2019-04-14T01:40:20.679Z,998.64
2019-04-14T01:41:20.126Z,998.62
2019-04-14T01:42:20.310Z,998.65
2019-04-14T01:43:21.257Z,998.69
2019-04-14T01:44:20.085Z,998.68
2019-04-14T01:45:21.081Z,998.66
2019-04-14T01:46:24.710Z,998.66
2019-04-14T01:47:21.038Z,998.65
2019-04-14T01:48:20.044Z,998.67
2019-04-14T01:49:20.381Z,998.66
2019-04-14T01:50:21.199Z,998.67
2019-04-14T01:51:20.283Z,998.68
2019-04-14T01:52:20.983Z,998.71
2019-04-14T01:53:20.776Z,998.67
2019-04-14T01:54:19.974Z,998.67
2019-04-14T01:55:20.168Z,998.63
2019-04-14T01:56:20.868Z,998.69
2019-04-14T01:57:20.024Z,998.64
2019-04-14T01:58:20.776Z,998.64
2019-04-14T01:59:19.933Z,998.63
2019-04-14T02:00:20.782Z,998.68
2019-04-14T02:01:19.907Z,998.69
2019-04-14T02:02:20.554Z,998.66
2019-04-14T02:03:19.880Z,998.68
2019-04-14T02:04:20.354Z,998.73
2019-04-14T02:05:19.906Z,998.70
2019-04-14T02:06:20.169Z,998.76
2019-04-14T02:07:20.986Z,998.72
2019-04-14T02:08:19.911Z,998.75
2019-04-14T02:09:20.877Z,998.75
2019-04-14T02:10:19.838Z,998.76
2019-04-14T02:11:20.569Z,998.78
2019-04-14T02:12:19.781Z,998.75
2019-04-14T02:13:20.339Z,998.74
2019-04-14T02:14:19.761Z,998.73
2019-04-14T02:15:20.036Z,998.74
2019-04-14T02:16:30.464Z,998.75
2019-04-14T02:17:21.933Z,998.71
2019-04-14T02:18:20.847Z,998.68
2019-04-14T02:19:19.898Z,998.68
2019-04-14T02:20:20.746Z,998.71
2019-04-14T02:21:19.709Z,998.69
2019-04-14T02:22:20.302Z,998.64
2019-04-14T02:23:19.682Z,998.67
2019-04-14T02:24:19.991Z,998.71
2019-04-14T02:25:20.928Z,998.63
2019-04-14T02:26:19.795Z,998.60
2019-04-14T02:27:20.929Z,998.67
2019-04-14T02:28:19.898Z,998.69
2019-04-14T02:29:19.612Z,998.67
2019-04-14T02:30:23.058Z,998.65
2019-04-14T02:31:39.436Z,998.69
2019-04-14T02:32:50.973Z,998.71
2019-04-14T02:33:44.427Z,998.69
2019-04-14T02:35:55.300Z,998.64
2019-04-14T02:36:52.397Z,998.62
2019-04-14T02:40:21.724Z,998.64
2019-04-14T02:40:55.983Z,998.63
2019-04-14T02:42:46.434Z,998.67
2019-04-14T02:43:52.305Z,998.72
2019-04-14T02:44:57.732Z,998.75
2019-04-14T02:45:52.028Z,998.73
2019-04-14T02:47:12.955Z,998.71
2019-04-14T02:48:52.845Z,998.76
2019-04-14T02:50:48.332Z,998.69
2019-04-14T02:52:53.677Z,998.69
2019-04-14T02:53:49.794Z,998.69
2019-04-14T02:54:55.272Z,998.77
2019-04-14T02:55:50.914Z,998.68
2019-04-14T02:56:44.802Z,998.70
2019-04-14T02:57:49.358Z,998.76
2019-04-14T02:59:00.025Z,998.67
2019-04-14T03:00:48.143Z,998.72
2019-04-14T03:02:20.213Z,998.70
2019-04-14T03:02:44.131Z,998.65
2019-04-14T03:03:43.469Z,998.74
2019-04-14T03:06:52.204Z,998.70
2019-04-14T03:07:45.938Z,998.71
2019-04-14T03:08:52.096Z,998.64
2019-04-14T03:09:53.773Z,998.65
2019-04-14T03:10:51.527Z,998.64
2019-04-14T03:11:48.988Z,998.68
2019-04-14T03:12:54.627Z,998.64
2019-04-14T03:13:45.896Z,998.73
2019-04-14T03:14:48.013Z,998.70
2019-04-14T03:15:48.217Z,998.67
2019-04-14T03:16:58.439Z,998.68
2019-04-14T03:17:47.355Z,998.73
2019-04-14T03:18:44.684Z,998.70
2019-04-14T03:19:56.407Z,998.71
2019-04-14T03:20:40.038Z,998.72
2019-04-14T03:22:49.925Z,998.74
2019-04-14T03:23:48.638Z,998.70
2019-04-14T03:24:37.436Z,998.73
2019-04-14T03:25:34.298Z,998.76
2019-04-14T03:27:49.940Z,998.79
2019-04-14T03:29:43.134Z,998.74
2019-04-14T03:32:17.380Z,998.80
2019-04-14T03:34:50.068Z,998.78
2019-04-14T03:37:59.259Z,998.81
2019-04-14T03:38:53.273Z,998.81
2019-04-14T03:39:45.993Z,998.82
2019-04-14T03:41:45.264Z,998.77
2019-04-14T03:42:54.013Z,998.89
2019-04-14T03:43:41.344Z,998.74
2019-04-14T03:44:48.932Z,998.80
2019-04-14T03:45:50.808Z,998.79
2019-04-14T03:47:42.129Z,998.85
2019-04-14T03:49:45.196Z,998.82
2019-04-14T03:50:44.327Z,998.78
2019-04-14T03:51:59.607Z,998.84
2019-04-14T03:52:50.081Z,998.84
2019-04-14T03:53:41.302Z,998.80
2019-04-14T03:54:40.552Z,998.86
2019-04-14T03:55:33.210Z,998.85
2019-04-14T03:56:21.208Z,998.80
2019-04-14T03:57:19.317Z,998.80
2019-04-14T03:58:18.674Z,998.88
2019-04-14T03:59:19.652Z,998.82
2019-04-14T04:00:18.661Z,998.87
2019-04-14T04:01:19.330Z,998.83
2019-04-14T04:02:18.612Z,998.85
2019-04-14T04:03:19.622Z,998.86
2019-04-14T04:04:18.587Z,998.83
2019-04-14T04:05:19.471Z,998.81
2019-04-14T04:06:18.616Z,998.79
2019-04-14T04:07:19.233Z,998.81
2019-04-14T04:08:18.557Z,998.79
2019-04-14T04:09:19.276Z,998.81
2019-04-14T04:10:18.543Z,998.82
2019-04-14T04:11:19.357Z,998.83
2019-04-14T04:12:18.488Z,998.86
2019-04-14T04:13:19.388Z,998.81
2019-04-14T04:14:18.482Z,998.86
2019-04-14T04:15:19.223Z,998.82
2019-04-14T04:16:18.483Z,998.84
2019-04-14T04:17:18.995Z,998.80
2019-04-14T04:18:18.444Z,998.84
2019-04-14T04:19:19.732Z,998.77
2019-04-14T04:20:19.551Z,998.82
2019-04-14T04:21:18.471Z,998.88
2019-04-14T04:22:19.324Z,998.86
2019-04-14T04:23:18.458Z,998.82
2019-04-14T04:24:19.239Z,998.84
2019-04-14T04:25:18.378Z,998.80
2019-04-14T04:26:19.096Z,998.84
2019-04-14T04:27:18.339Z,998.81
2019-04-14T04:28:18.834Z,998.78
2019-04-14T04:29:18.317Z,998.80
2019-04-14T04:30:18.662Z,998.77
2019-04-14T04:31:18.306Z,998.79
2019-04-14T04:32:18.627Z,998.75
2019-04-14T04:33:18.298Z,998.78
2019-04-14T04:34:18.392Z,998.77
2019-04-14T04:35:18.266Z,998.73
2019-04-14T04:36:18.250Z,998.72
2019-04-14T04:37:19.260Z,998.77
2019-04-14T04:38:18.231Z,998.72
2019-04-14T04:39:19.276Z,998.74
2019-04-14T04:40:18.196Z,998.70
2019-04-14T04:41:18.979Z,998.72
2019-04-14T04:42:18.175Z,998.71
2019-04-14T04:43:19.031Z,998.73
2019-04-14T04:44:18.180Z,998.75
2019-04-14T04:45:19.147Z,998.79
2019-04-14T04:46:18.178Z,998.75
2019-04-14T04:47:18.796Z,998.78
2019-04-14T04:48:18.112Z,998.83
2019-04-14T04:49:21.796Z,998.84
2019-04-14T04:50:19.304Z,998.86
2019-04-14T04:51:18.241Z,998.85
2019-04-14T04:52:19.104Z,998.84
2019-04-14T04:53:18.166Z,998.84
2019-04-14T04:54:18.921Z,998.84
2019-04-14T04:55:18.046Z,998.82
2019-04-14T04:56:18.683Z,998.83
2019-04-14T04:57:18.013Z,998.89
2019-04-14T04:58:18.000Z,998.86
2019-04-14T04:59:18.939Z,998.86
2019-04-14T05:00:17.987Z,998.81
2019-04-14T05:01:18.821Z,998.85
2019-04-14T05:02:17.976Z,998.87
2019-04-14T05:03:18.999Z,998.85
2019-04-14T05:04:17.953Z,998.95
2019-04-14T05:05:18.778Z,998.88
2019-04-14T05:06:20.873Z,998.85
2019-04-14T05:07:18.784Z,998.84
2019-04-14T05:08:17.903Z,998.91
2019-04-14T05:09:18.860Z,998.89
2019-04-14T05:10:17.913Z,998.96
2019-04-14T05:11:18.701Z,998.93
2019-04-14T05:12:17.879Z,998.97
2019-04-14T05:13:18.396Z,998.91
2019-04-14T05:14:17.851Z,998.97
2019-04-14T05:15:18.348Z,998.98
2019-04-14T05:16:17.836Z,998.93
2019-04-14T05:17:19.043Z,998.94
2019-04-14T05:18:17.891Z,998.98
2019-04-14T05:19:25.781Z,998.91
2019-04-14T05:20:18.773Z,998.91
2019-04-14T05:21:17.784Z,998.97
2019-04-14T05:22:19.267Z,999.01
2019-04-14T05:23:19.006Z,998.99
2019-04-14T05:24:17.963Z,998.97
2019-04-14T05:25:18.885Z,999.00
2019-04-14T05:26:17.877Z,999.04
2019-04-14T05:27:18.823Z,999.00
2019-04-14T05:28:17.859Z,999.06
2019-04-14T05:29:18.883Z,999.05
2019-04-14T05:30:17.670Z,999.03
2019-04-14T05:31:18.599Z,999.08
2019-04-14T05:32:17.659Z,999.07
2019-04-14T05:33:18.568Z,999.07
2019-04-14T05:34:17.638Z,999.06
2019-04-14T05:35:18.419Z,999.07
2019-04-14T05:36:17.635Z,999.11
2019-04-14T05:37:18.257Z,999.08
2019-04-14T05:38:17.595Z,999.08
2019-04-14T05:39:17.790Z,999.11
2019-04-14T05:40:18.791Z,999.13
2019-04-14T05:41:17.977Z,999.05
2019-04-14T05:42:20.176Z,999.09
2019-04-14T05:43:31.272Z,999.08
2019-04-14T05:44:18.659Z,999.17
2019-04-14T05:45:17.713Z,999.21
2019-04-14T05:46:18.467Z,999.17
2019-04-14T05:47:17.615Z,999.16
2019-04-14T05:48:18.252Z,999.12
2019-04-14T05:49:28.619Z,999.12
2019-04-14T05:50:18.439Z,999.19
2019-04-14T05:51:20.160Z,999.20
2019-04-14T05:52:18.416Z,999.18
2019-04-14T05:53:17.570Z,999.22
2019-04-14T05:54:18.461Z,999.17
2019-04-14T05:55:17.652Z,999.13
2019-04-14T05:56:18.543Z,999.17
2019-04-14T05:57:17.687Z,999.17
2019-04-14T05:58:18.490Z,999.18
2019-04-14T05:59:17.722Z,999.13
2019-04-14T06:00:17.363Z,999.19
2019-04-14T06:01:18.166Z,999.23
2019-04-14T06:02:18.049Z,999.21
2019-04-14T06:03:17.329Z,999.22
2019-04-14T06:04:17.832Z,999.20
2019-04-14T06:05:17.313Z,999.23
2019-04-14T06:06:17.302Z,999.18
2019-04-14T06:07:17.305Z,999.22
2019-04-14T06:08:17.278Z,999.23
2019-04-14T06:09:17.244Z,999.23
2019-04-14T06:10:17.252Z,999.27
2019-04-14T06:11:17.247Z,999.30
2019-04-14T06:12:17.269Z,999.31
2019-04-14T06:13:17.220Z,999.31
2019-04-14T06:14:17.194Z,999.28
2019-04-14T06:15:17.217Z,999.32
2019-04-14T06:16:17.171Z,999.34
2019-04-14T06:17:17.231Z,999.34
2019-04-14T06:18:17.160Z,999.34
2019-04-14T06:19:17.174Z,999.34
2019-04-14T06:20:17.132Z,999.38
2019-04-14T06:21:17.147Z,999.42
2019-04-14T06:22:17.145Z,999.38
2019-04-14T06:23:17.101Z,999.43
2019-04-14T06:24:17.101Z,999.41
2019-04-14T06:25:17.129Z,999.39
2019-04-14T06:26:17.079Z,999.37
2019-04-14T06:27:17.110Z,999.41
2019-04-14T06:28:17.099Z,999.40
2019-04-14T06:29:17.035Z,999.42
2019-04-14T06:30:17.049Z,999.46
2019-04-14T06:31:17.023Z,999.40
2019-04-14T06:32:17.041Z,999.41
2019-04-14T06:33:17.016Z,999.43
2019-04-14T06:34:17.003Z,999.42
2019-04-14T06:35:16.990Z,999.47
2019-04-14T06:36:16.983Z,999.41
2019-04-14T06:37:16.974Z,999.46
2019-04-14T06:38:16.973Z,999.42
2019-04-14T06:39:16.962Z,999.46
2019-04-14T06:40:16.941Z,999.42
2019-04-14T06:41:16.925Z,999.40
2019-04-14T06:42:16.938Z,999.41
2019-04-14T06:43:16.918Z,999.33
2019-04-14T06:44:16.906Z,999.38
2019-04-14T06:45:16.882Z,999.35
2019-04-14T06:46:16.862Z,999.37
2019-04-14T06:47:16.932Z,999.38
2019-04-14T06:48:16.857Z,999.46
2019-04-14T06:49:16.846Z,999.44
2019-04-14T06:50:16.817Z,999.35
2019-04-14T06:51:16.837Z,999.39
2019-04-14T06:52:16.827Z,999.40
2019-04-14T06:53:16.785Z,999.44
2019-04-14T06:54:16.796Z,999.33
2019-04-14T06:55:16.777Z,999.32
2019-04-14T06:56:16.773Z,999.32
2019-04-14T06:57:16.762Z,999.39
2019-04-14T06:58:16.767Z,999.35
2019-04-14T06:59:16.725Z,999.31
2019-04-14T07:00:16.738Z,999.34
2019-04-14T07:01:16.689Z,999.32
2019-04-14T07:02:16.712Z,999.38
2019-04-14T07:03:16.698Z,999.37
2019-04-14T07:04:16.699Z,999.38
2019-04-14T07:05:16.656Z,999.36
2019-04-14T07:06:16.651Z,999.36
2019-04-14T07:07:16.667Z,999.44
2019-04-14T07:08:16.626Z,999.43
2019-04-14T07:09:16.632Z,999.42
2019-04-14T07:10:16.650Z,999.44
2019-04-14T07:11:16.595Z,999.44
2019-04-14T07:12:16.721Z,999.46
2019-04-14T07:13:19.307Z,999.48
2019-04-14T07:14:16.554Z,999.47
2019-04-14T07:15:16.580Z,999.43
2019-04-14T07:16:16.555Z,999.46
2019-04-14T07:17:16.585Z,999.54
2019-04-14T07:18:16.515Z,999.53
2019-04-14T07:19:16.519Z,999.40
2019-04-14T07:20:16.511Z,999.48
2019-04-14T07:21:16.505Z,999.47
2019-04-14T07:22:16.517Z,999.48
2019-04-14T07:23:16.467Z,999.54
2019-04-14T07:24:16.446Z,999.53
2019-04-14T07:25:16.466Z,999.51
2019-04-14T07:26:16.437Z,999.49
2019-04-14T07:27:16.457Z,999.56
2019-04-14T07:28:16.429Z,999.54
2019-04-14T07:29:16.400Z,999.54
2019-04-14T07:30:16.396Z,999.55
2019-04-14T07:31:16.382Z,999.60
2019-04-14T07:32:16.394Z,999.52
2019-04-14T07:33:16.357Z,999.51
2019-04-14T07:34:16.361Z,999.57
2019-04-14T07:35:16.350Z,999.54
2019-04-14T07:36:16.449Z,999.49
2019-04-14T07:37:18.944Z,999.52
2019-04-14T07:38:16.339Z,999.60
2019-04-14T07:39:16.367Z,999.56
2019-04-14T07:40:16.270Z,999.58
2019-04-14T07:41:16.283Z,999.60
2019-04-14T07:42:16.307Z,999.58
2019-04-14T07:43:16.254Z,999.48
2019-04-14T07:44:16.251Z,999.58
2019-04-14T07:45:16.257Z,999.60
2019-04-14T07:46:16.251Z,999.57
2019-04-14T07:47:16.232Z,999.55
2019-04-14T07:48:16.215Z,999.49
2019-04-14T07:49:16.238Z,999.58
2019-04-14T07:50:16.228Z,999.53
2019-04-14T07:51:16.252Z,999.55
2019-04-14T07:52:16.211Z,999.52
2019-04-14T07:53:16.214Z,999.46
2019-04-14T07:54:16.221Z,999.48
2019-04-14T07:55:16.152Z,999.57
2019-04-14T07:56:16.161Z,999.51
2019-04-14T07:57:16.388Z,999.50
2019-04-14T07:58:16.130Z,999.50
2019-04-14T07:59:16.323Z,999.53
2019-04-14T08:00:16.208Z,999.58
2019-04-14T08:01:16.082Z,999.44
2019-04-14T08:02:16.083Z,999.44
2019-04-14T08:03:16.227Z,999.43
2019-04-14T08:04:16.113Z,999.54
2019-04-14T08:05:15.998Z,999.58
2019-04-14T08:06:16.110Z,999.52
2019-04-14T08:07:16.215Z,999.54
2019-04-14T08:08:16.049Z,999.54
2019-04-14T08:09:16.151Z,999.52
2019-04-14T08:10:15.987Z,999.59
2019-04-14T08:11:15.969Z,999.63
2019-04-14T08:12:16.025Z,999.52
2019-04-14T08:13:15.999Z,999.55
2019-04-14T08:14:15.948Z,999.53
2019-04-14T08:15:15.995Z,999.55
2019-04-14T08:16:16.038Z,999.50
2019-04-14T08:17:15.966Z,999.61
2019-04-14T08:18:15.938Z,999.61
2019-04-14T08:19:15.938Z,999.76
2019-04-14T08:20:26.781Z,999.76
2019-04-14T08:21:16.902Z,999.69
2019-04-14T08:22:15.867Z,999.74
2019-04-14T08:23:15.867Z,999.64
2019-04-14T08:24:15.814Z,999.69
2019-04-14T08:25:15.912Z,999.61
2019-04-14T08:26:15.985Z,999.73
2019-04-14T08:27:15.905Z,999.59
2019-04-14T08:28:15.821Z,999.67
2019-04-14T08:29:15.931Z,999.60
2019-04-14T08:30:15.833Z,999.78
2019-04-14T08:31:15.921Z,999.77
2019-04-14T08:32:15.809Z,999.70
2019-04-14T08:33:15.943Z,999.81
2019-04-14T08:34:15.762Z,999.70
2019-04-14T08:35:15.843Z,999.66
2019-04-14T08:36:15.711Z,999.74
2019-04-14T08:37:15.809Z,999.85
2019-04-14T08:38:15.787Z,999.69
2019-04-14T08:39:15.649Z,999.71
2019-04-14T08:40:15.735Z,999.70
2019-04-14T08:41:15.744Z,999.68
2019-04-14T08:42:15.681Z,999.70
2019-04-14T08:43:15.824Z,999.63
2019-04-14T08:44:15.608Z,999.58
2019-04-14T08:45:15.658Z,999.67
2019-04-14T08:46:15.938Z,999.79
2019-04-14T08:47:15.835Z,999.83
2019-04-14T08:48:15.827Z,999.81
2019-04-14T08:49:15.860Z,999.82
2019-04-14T08:50:15.682Z,999.71
2019-04-14T08:51:15.624Z,999.67
2019-04-14T08:52:15.826Z,999.78
2019-04-14T08:53:15.749Z,999.82
2019-04-14T08:54:15.625Z,999.64
2019-04-14T08:55:15.642Z,999.64
2019-04-14T08:56:15.564Z,999.97
2019-04-14T08:57:15.592Z,999.88
2019-04-14T08:58:15.485Z,999.86
2019-04-14T08:59:15.416Z,999.93
2019-04-14T09:00:15.511Z,999.83
2019-04-14T09:01:15.439Z,999.89
2019-04-14T09:02:15.447Z,999.85
2019-04-14T09:03:15.430Z,999.95
2019-04-14T09:04:15.417Z,999.99
2019-04-14T09:05:15.374Z,999.88
2019-04-14T09:06:15.504Z,999.82
2019-04-14T09:07:15.379Z,999.80
2019-04-14T09:08:15.471Z,999.90
2019-04-14T09:09:15.341Z,999.74
2019-04-14T09:10:15.313Z,999.89
2019-04-14T09:11:15.320Z,999.78
2019-04-14T09:12:16.206Z,999.71
2019-04-14T09:13:15.314Z,999.90
2019-04-14T09:14:15.317Z,999.92
2019-04-14T09:15:15.263Z,999.88
2019-04-14T09:16:15.243Z,1000.01
2019-04-14T09:17:15.257Z,1000.04
2019-04-14T09:18:15.375Z,1000.06
2019-04-14T09:19:15.268Z,1000.01
2019-04-14T09:20:15.246Z,999.99
2019-04-14T09:21:15.188Z,999.95
2019-04-14T09:22:15.270Z,999.96
2019-04-14T09:23:15.328Z,1000.04
2019-04-14T09:24:15.166Z,1000.02
2019-04-14T09:25:15.229Z,1000.07
2019-04-14T09:26:15.169Z,999.99
2019-04-14T09:27:15.131Z,1000.05
2019-04-14T09:28:15.123Z,1000.00
2019-04-14T09:29:15.159Z,999.88
2019-04-14T09:30:15.133Z,999.88
2019-04-14T09:31:15.070Z,999.96
2019-04-14T09:32:15.105Z,999.93
2019-04-14T09:33:15.090Z,999.94
2019-04-14T09:34:15.143Z,999.94
2019-04-14T09:35:15.126Z,999.97
2019-04-14T09:36:15.111Z,999.97
2019-04-14T09:37:15.135Z,999.95
2019-04-14T09:38:15.123Z,999.96
2019-04-14T09:39:15.030Z,1000.06
2019-04-14T09:40:15.024Z,1000.02
2019-04-14T09:41:14.997Z,1000.05
2019-04-14T09:42:14.992Z,1000.03
2019-04-14T09:43:15.005Z,1000.02
2019-04-14T09:44:14.919Z,999.94
2019-04-14T09:45:14.931Z,1000.03
2019-04-14T09:46:14.935Z,999.98
2019-04-14T09:47:14.895Z,999.90
2019-04-14T09:48:14.935Z,999.90
2019-04-14T09:49:14.925Z,999.87
2019-04-14T09:50:14.869Z,999.93
2019-04-14T09:51:14.875Z,1000.01
2019-04-14T09:52:14.849Z,1000.05
2019-04-14T09:53:14.861Z,999.92
2019-04-14T09:54:14.880Z,999.93
2019-04-14T09:55:14.824Z,999.95
2019-04-14T09:56:14.820Z,999.95
2019-04-14T09:57:14.801Z,999.92
2019-04-14T09:58:14.833Z,1000.00
2019-04-14T09:59:14.768Z,999.96
2019-04-14T10:00:14.751Z,1000.00
2019-04-14T10:01:14.759Z,999.96
2019-04-14T10:02:14.762Z,999.93
2019-04-14T10:03:14.777Z,1000.01
2019-04-14T10:04:14.709Z,999.99
2019-04-14T10:05:14.700Z,1000.04
2019-04-14T10:06:14.715Z,1000.06
2019-04-14T10:07:14.846Z,1000.05
2019-04-14T10:08:14.703Z,1000.02
2019-04-14T10:09:14.670Z,1000.03
2019-04-14T10:10:14.661Z,999.92
2019-04-14T10:11:14.684Z,999.98
2019-04-14T10:12:14.666Z,1000.02
2019-04-14T10:13:14.663Z,1000.00
2019-04-14T10:14:14.622Z,1000.02
2019-04-14T10:15:14.593Z,1000.02
2019-04-14T10:16:14.612Z,1000.02
2019-04-14T10:17:14.597Z,999.90
2019-04-14T10:18:14.582Z,999.91
2019-04-14T10:19:14.562Z,1000.03
2019-04-14T10:20:14.547Z,1000.00
2019-04-14T10:21:17.491Z,1000.03
2019-04-14T10:22:14.530Z,999.94
2019-04-14T10:23:14.576Z,999.87
2019-04-14T10:24:14.491Z,999.80
2019-04-14T10:25:14.514Z,999.87
2019-04-14T10:26:14.478Z,999.92
2019-04-14T10:27:14.472Z,999.90
2019-04-14T10:28:14.470Z,999.94
2019-04-14T10:29:14.460Z,999.86
2019-04-14T10:30:14.441Z,999.90
2019-04-14T10:31:14.462Z,999.89
2019-04-14T10:32:14.412Z,999.94
2019-04-14T10:33:14.454Z,999.83
2019-04-14T10:34:14.412Z,999.97
2019-04-14T10:35:14.398Z,999.95
2019-04-14T10:36:14.414Z,999.91
2019-04-14T10:37:14.381Z,999.94
2019-04-14T10:38:14.385Z,999.93
2019-04-14T10:39:14.342Z,999.90
2019-04-14T10:40:14.309Z,999.92
2019-04-14T10:41:14.309Z,1000.01
2019-04-14T10:42:14.292Z,1000.05
2019-04-14T10:43:14.340Z,999.91
2019-04-14T10:44:14.312Z,1000.00
2019-04-14T10:45:14.313Z,1000.00
2019-04-14T10:46:14.308Z,999.94
2019-04-14T10:47:14.257Z,999.83
2019-04-14T10:48:14.323Z,999.94
2019-04-14T10:49:14.242Z,999.94
2019-04-14T10:50:14.261Z,999.97
2019-04-14T10:51:14.241Z,999.94
2019-04-14T10:52:14.189Z,999.91
2019-04-14T10:53:14.197Z,999.87
2019-04-14T10:54:14.192Z,999.86
2019-04-14T10:55:14.176Z,999.89
2019-04-14T10:56:14.146Z,999.93
2019-04-14T10:57:14.165Z,999.86
2019-04-14T10:58:14.198Z,999.95
2019-04-14T10:59:14.129Z,999.90
2019-04-14T11:00:14.188Z,999.95
2019-04-14T11:01:14.102Z,999.82
2019-04-14T11:02:14.162Z,999.87
2019-04-14T11:03:14.099Z,999.85
2019-04-14T11:04:14.097Z,999.79
2019-04-14T11:05:14.044Z,999.79
2019-04-14T11:06:14.097Z,999.82
2019-04-14T11:07:14.078Z,999.88
2019-04-14T11:08:14.050Z,999.88
2019-04-14T11:09:14.082Z,999.86
2019-04-14T11:10:14.080Z,999.90
2019-04-14T11:11:14.036Z,999.89
2019-04-14T11:12:14.004Z,999.89
2019-04-14T11:13:13.952Z,999.85
2019-04-14T11:14:13.974Z,999.90
2019-04-14T11:15:15.531Z,999.90
2019-04-14T11:16:13.942Z,999.84
2019-04-14T11:17:13.943Z,999.89
2019-04-14T11:18:13.960Z,999.85
2019-04-14T11:19:13.909Z,999.84
2019-04-14T11:20:13.891Z,999.89
2019-04-14T11:21:13.908Z,999.86
2019-04-14T11:22:13.882Z,999.81
2019-04-14T11:23:13.856Z,999.84
2019-04-14T11:24:13.907Z,999.75
2019-04-14T11:25:13.874Z,999.80
2019-04-14T11:26:13.827Z,999.79
2019-04-14T11:27:13.846Z,999.85
2019-04-14T11:28:13.801Z,999.84
2019-04-14T11:29:13.889Z,999.82
2019-04-14T11:30:13.812Z,999.78
2019-04-14T11:31:13.795Z,999.81
2019-04-14T11:32:13.819Z,999.72
2019-04-14T11:33:13.775Z,999.77
2019-04-14T11:34:13.812Z,999.81
2019-04-14T11:35:16.319Z,999.74
2019-04-14T11:36:13.763Z,999.79
2019-04-14T11:37:13.801Z,999.82
2019-04-14T11:38:13.757Z,999.79
2019-04-14T11:39:13.729Z,999.82
2019-04-14T11:40:13.711Z,999.79
2019-04-14T11:41:13.705Z,999.82
2019-04-14T11:42:13.710Z,999.75
2019-04-14T11:43:13.707Z,999.71
2019-04-14T11:44:13.739Z,999.75
2019-04-14T11:45:13.687Z,999.76
2019-04-14T11:46:13.676Z,999.75
2019-04-14T11:47:16.152Z,999.71
2019-04-14T11:48:13.661Z,999.75
2019-04-14T11:49:13.684Z,999.73
2019-04-14T11:50:13.618Z,999.69
2019-04-14T11:51:13.566Z,999.65
2019-04-14T11:52:13.627Z,999.68
2019-04-14T11:53:13.528Z,999.73
2019-04-14T11:54:13.560Z,999.74
2019-04-14T11:55:13.521Z,999.71
2019-04-14T11:56:13.499Z,999.68
2019-04-14T11:57:13.500Z,999.64
2019-04-14T11:58:13.533Z,999.67
2019-04-14T11:59:13.531Z,999.65
2019-04-14T12:00:13.473Z,999.75
2019-04-14T12:01:13.461Z,999.64
2019-04-14T12:02:13.450Z,999.70
2019-04-14T12:03:13.483Z,999.71
2019-04-14T12:04:13.457Z,999.74
2019-04-14T12:05:13.463Z,999.65
2019-04-14T12:06:13.427Z,999.66
2019-04-14T12:07:13.384Z,999.70
2019-04-14T12:08:13.417Z,999.64
2019-04-14T12:09:13.398Z,999.74
2019-04-14T12:10:13.374Z,999.65
2019-04-14T12:11:13.323Z,999.68
2019-04-14T12:12:13.330Z,999.60
2019-04-14T12:13:13.328Z,999.63
2019-04-14T12:14:13.363Z,999.65
2019-04-14T12:15:16.663Z,999.61
2019-04-14T12:16:13.305Z,999.67
2019-04-14T12:17:13.311Z,999.66
2019-04-14T12:18:13.267Z,999.63
2019-04-14T12:19:13.314Z,999.64
2019-04-14T12:20:13.297Z,999.64
2019-04-14T12:21:13.244Z,999.75
2019-04-14T12:22:13.252Z,999.70
2019-04-14T12:23:15.938Z,999.62
2019-04-14T12:24:13.235Z,999.65
2019-04-14T12:25:13.239Z,999.64
2019-04-14T12:26:13.187Z,999.61
2019-04-14T12:27:13.162Z,999.58
2019-04-14T12:28:13.598Z,999.60
2019-04-14T12:29:14.135Z,999.62
2019-04-14T12:30:13.688Z,999.66
2019-04-14T12:31:13.180Z,999.63
2019-04-14T12:32:13.110Z,999.70
2019-04-14T12:33:13.166Z,999.65
2019-04-14T12:34:13.139Z,999.78
2019-04-14T12:35:13.170Z,999.69
2019-04-14T12:36:13.102Z,999.75
2019-04-14T12:37:13.111Z,999.76
2019-04-14T12:38:13.098Z,999.73
2019-04-14T12:39:13.075Z,999.69
2019-04-14T12:40:13.062Z,999.69
2019-04-14T12:41:13.038Z,999.64
2019-04-14T12:42:13.035Z,999.69
2019-04-14T12:43:13.009Z,999.65
2019-04-14T12:44:13.064Z,999.76
2019-04-14T12:45:13.096Z,999.68
2019-04-14T12:46:12.971Z,999.62
2019-04-14T12:47:12.972Z,999.63
2019-04-14T12:48:12.949Z,999.72